Nogales International Airport
KOLS : now visible

Airfield :











YOU CAN JOIN US ON...

 
LOGIN :

Register | Disclaimer

   EN    FR    IT 

 









Legend :    VFR   Marginal VFR   IFR   Intensive IFR   Very Intensive IFR
Visi :
Ceiling :
>= 8 km
>= 3000ft
5 to 8 km
1000 to 3000 ft
1500m to 5 km
500 to 1000 ft
800 to 1500m
200 to 500 ft
< 800m
< 200 ft
Symbols :   Thunderstorms  Fog  Heavy snow  Heavy precipitations  Wind > 20 kt






- Airport Elevation : 3955 ft


KOLS - Nogales International

CURRENT METAR :
  • 060154Z AUTO 18007KT 10SM BKN110 19/12 A3013 RMK AO2 SLP157 T01940117

EXPIRED METARs :
  • 060054Z AUTO 19004KT 10SM FEW090 BKN110 21/12 A3012 RMK AO2 SLP152 T02060122
  • 052354Z AUTO 20004KT 10SM FEW120 22/11 A3009 RMK AO2 SLP143 T02170111 10278 20217 56004

TAF KOLS
Valid from the 06 at 00:00 until the 07 at 00:00 UTC


052324Z 0600/0624 VRB04KT P6SM VCSH SCT070 BKN110
FM060300 VRB03KT P6SM SCT120
FM062000 VRB04KT P6SM VCSH SCT070 BKN110
KZAB FIR / North America



MET'MAP, your aeronautical weather chart ! - Copyright ORBIFLY December 2007 - Disclaimer

ORBIFLY MET'MAP TEAM :

Programming & Development : Alexandra Zaïnal
Original concept : Baudouin d'Aumeries
Technical & hardware support : Manuel Goepfert
Assistance : Marc-Olivier Méhu




SOURCES & CREDITS :

   NOAA       Earth
Advisory